WetterOnline ( https://www.wetteronline.de )

Wetter aktuell Cuxhaven

Aktuelles Wetter: Cuxhaven (12m)

6-stündlich | Neueste Meldungen
Ortszeit Temperatur Wetter
Fr, 12.04. 14:00 16.3° C wolkig
Fr, 12.04. 8:00 13.1° C bedeckt
Fr, 12.04. 2:00 13.0° C bedeckt
Do, 11.04. 20:00 12.7° C bedeckt
Do, 11.04. 14:00 13.0° C Sprühregen
Do, 11.04. 8:00 10.6° C leichter Regen
Do, 11.04. 2:00 9.6° C bewölkt
Mi, 10.04. 20:00 10.3° C wolkenlos
Ortszeit Temperatur Wetter
Fr, 12.04. 16:00 13.6° C bewölkt
Fr, 12.04. 15:40 13.5° C bewölkt
Fr, 12.04. 15:30 13.8° C bewölkt
Fr, 12.04. 15:20 13.8° C bewölkt
Fr, 12.04. 15:10 14.2° C wolkig
Fr, 12.04. 15:00 14.3° C wolkig
Fr, 12.04. 14:50 14.3° C wolkig
Fr, 12.04. 14:30 17.0° C bewölkt
Fr, 12.04. 14:00 16.3° C wolkig
Fr, 12.04. 13:30 15.6° C bewölkt
Fr, 12.04. 13:00 14.7° C bewölkt
Ortszeit Relative Feuchte Sichtweite
Fr, 12.04. 14:00 76% 30 km
Fr, 12.04. 8:00 94% 9 km
Fr, 12.04. 2:00 92% 20 km
Do, 11.04. 20:00 94% 21 km
Do, 11.04. 14:00 88% 13 km
Do, 11.04. 8:00 79% 22 km
Do, 11.04. 2:00 69% 40 km
Mi, 10.04. 20:00 72% 27 km
Ortszeit Relative Feuchte Sichtweite
Fr, 12.04. 16:00 80% 26 km
Fr, 12.04. 15:40 79% -
Fr, 12.04. 15:30 77% 27 km
Fr, 12.04. 15:20 77% -
Fr, 12.04. 15:10 75% -
Fr, 12.04. 15:00 75% 29 km
Fr, 12.04. 14:50 75% -
Fr, 12.04. 14:30 68% 55 km
Fr, 12.04. 14:00 76% 30 km
Fr, 12.04. 13:30 81% 30 km
Fr, 12.04. 13:00 88% 26 km
Ortszeit Niederschlagsmenge Niederschlagsart
Fr, 12.04. 14:00 0.1 l/m2 in 6 Std. Regen
Fr, 12.04. 8:00 0.1 l/m2 in 12 Std. Regen
Fr, 12.04. 2:00 0.0 l/m2 in 6 Std. -
Do, 11.04. 20:00 3 l/m2 in 12 Std. Regen
Do, 11.04. 14:00 2 l/m2 in 6 Std. Regen
Do, 11.04. 8:00 0.4 l/m2 in 12 Std. Regen
Do, 11.04. 2:00 0.0 l/m2 in 6 Std. -
Mi, 10.04. 20:00 4 l/m2 in 12 Std. -
Ortszeit Niederschlagsmenge Niederschlagsart
Fr, 12.04. 16:00 0.0 l/m2 in 1 Std. -
Fr, 12.04. 15:40 keine Meldung -
Fr, 12.04. 15:30 0.0 l/m2 in 30 Min -
Fr, 12.04. 15:20 keine Meldung -
Fr, 12.04. 15:10 keine Meldung -
Fr, 12.04. 15:00 0.0 l/m2 in 1 Std. -
Fr, 12.04. 14:50 keine Meldung -
Fr, 12.04. 14:30 0.0 l/m2 in 30 Min -
Fr, 12.04. 14:00 0.0 l/m2 in 1 Std. Regen
Fr, 12.04. 13:30 0.0 l/m2 in 30 Min -
Fr, 12.04. 13:00 0.0 l/m2 in 1 Std. -
Ortszeit Stärke Spitze Richtung
km/h Bft. km/h Grad Sektor
Fr, 12.04. 14:00 24 4 50 240° SW
Fr, 12.04. 8:00 14 3 32 210° SW
Fr, 12.04. 2:00 11 2 26 220° SW
Do, 11.04. 20:00 14 3 43 240° SW
Do, 11.04. 14:00 20 4 48 240° SW
Do, 11.04. 8:00 20 4 52 220° SW
Do, 11.04. 2:00 11 2 25 170° S
Mi, 10.04. 20:00 9 2 43 270° W
Ortszeit Stärke Spitze Richtung
km/h Bft. km/h Grad Sektor
Fr, 12.04. 16:00 31 5 54 280° W
Fr, 12.04. 15:40 36 5 - 280° W
Fr, 12.04. 15:30 33 5 52 270° W
Fr, 12.04. 15:20 33 5 - 270° W
Fr, 12.04. 15:10 31 5 - 270° W
Fr, 12.04. 15:00 28 4 44 270° W
Fr, 12.04. 14:50 28 4 - 270° W
Fr, 12.04. 14:30 22 4 40 250° W
Fr, 12.04. 14:00 24 4 44 240° SW
Fr, 12.04. 13:30 19 3 43 230° SW
Fr, 12.04. 13:00 22 4 43 220° SW
Ortszeit Untergrenze Bedeckung Gattung
total tief tief mittel hoch
Fr, 12.04. 14:00 480 m 8/8 2/8 - - -
Fr, 12.04. 8:00 210 m 8/8 8/8 - - -
Fr, 12.04. 2:00 960 m 8/8 8/8 - - -
Do, 11.04. 20:00 540 m 8/8 8/8 - - -
Do, 11.04. 14:00 300 m 8/8 8/8 - - -
Do, 11.04. 8:00 720 m 8/8 8/8 - - -
Do, 11.04. 2:00 2100 m 8/8 4/8 - - -
Mi, 10.04. 20:00 - 0/8 0/8 - - -
Ortszeit Bedeckungsgrad in Achtel und Wolkenuntergrenze
Fr, 12.04. 16:00 7(4200m) 7(9000m) 7(9000m)
Fr, 12.04. 15:40 7
Fr, 12.04. 15:30 4(3600m) 6(6000m) 7(9000m)
Fr, 12.04. 15:20 4(3600m) 6(6000m) 7(9000m)
Fr, 12.04. 15:10 5
Fr, 12.04. 15:00 4(1050m) 5(3300m) 5(6000m)
Fr, 12.04. 14:50 4(1050m) 5(3300m) 5(6000m)
Fr, 12.04. 14:30 6(1050m) 6(6000m) 7(9000m)
Fr, 12.04. 14:00 2(480m) 7(3000m) 8(5700m)
Fr, 12.04. 13:30 7(420m) 7(1500m)
Fr, 12.04. 13:00 7(300m)
Ortszeit Luftdruck NN (hPa) Tendenz (hPa in 3 Std.)
Fr, 12.04. 14:00 1027 - 0,5
Fr, 12.04. 8:00 1028 - 0,8
Fr, 12.04. 2:00 1030 - 0,4
Do, 11.04. 20:00 1030 + 0,7
Do, 11.04. 14:00 1029 + 1,5
Do, 11.04. 8:00 1026 + 0,4
Do, 11.04. 2:00 1027 - 1,3
Mi, 10.04. 20:00 1028 + 0,4
Ortszeit Luftdruck NN (hPa) Tendenz (hPa in 3 Std.)
Fr, 12.04. 16:00 1027 + 0,1
Fr, 12.04. 15:40 1027 keine Meldung
Fr, 12.04. 15:30 1027 - 0,2
Fr, 12.04. 15:20 1027 keine Meldung
Fr, 12.04. 15:10 1027 keine Meldung
Fr, 12.04. 15:00 1027 + 0,1
Fr, 12.04. 14:50 1027 keine Meldung
Fr, 12.04. 14:30 1027 - 0,2
Fr, 12.04. 14:00 1027 - 0,5
Fr, 12.04. 13:30 1027 - 0,5
Fr, 12.04. 13:00 1027 - 0,6
Ortszeit Schneehöhe (cm)
Fr, 12.04. 14:00 0
Fr, 12.04. 8:00 0
Fr, 12.04. 2:00 0
Do, 11.04. 20:00 0
Do, 11.04. 14:00 0
Do, 11.04. 8:00 0
Do, 11.04. 2:00 0
Mi, 10.04. 20:00 0
Ortszeit Schneehöhe (cm)
Fr, 12.04. 16:00 0
Fr, 12.04. 15:40 -
Fr, 12.04. 15:30 0
Fr, 12.04. 15:20 0
Fr, 12.04. 15:10 -
Fr, 12.04. 15:00 0
Fr, 12.04. 14:50 0
Fr, 12.04. 14:30 0
Fr, 12.04. 14:00 0
Fr, 12.04. 13:30 0
Fr, 12.04. 13:00 0
Link zu dieser Seite / Seite empfehlen

Das Wetter in ...